MiSS Sylvia — WDE5412 — position and weather

sailwx.info

Track history (hours):
 
Tides and Currents Weather Stations Pressure Air Temp Water Temp Dewpoint Dewpoint Depression Visibility Wind Speed Wind Dir Waves Ship Positions

MiSS Sylvia

Owner: DOUBLE J MARINE, LLC, LAPLACE, LA. More information available from US FCC via Universal Licensing System and Coast Guard Vessel Documentation Center.

Last reported at 2015-May-29 18:21 UTC. Time now 2015-May-30 10:36 UTC.
Position N 30°20' W 091°14'.

Length 20 m; draft 2.7 m.

Type: Towing. MMSI: 367366340.

Date/timePositionNaut miles runAvg speedWind from/ knotsBaromVisibWave heightAir tempDewpointWater temp
2015-May-29 18:21N 30°20' W 091°14'4 4.9
2015-May-29 17:33N 30°24' W 091°13'2 1.6
2015-May-29 16:33N 30°26' W 091°12'3 2.7
2015-May-29 15:33N 30°23' W 091°13'3 1.5
2015-May-29 13:25N 30°21' W 091°11'3 1.7
2015-May-29 11:33N 30°18' W 091°13'7 3.3
2015-May-29 09:33N 30°15' W 091°07'54 1.8
2015-May-28 04:20N 29°57' W 090°08'14 3.0
2015-May-27 23:32N 29°44' W 089°60'8 4.0
2015-May-27 21:30N 29°38' W 089°55'17 1.1
2015-May-27 06:26N 29°55' W 089°55'6 6.5
2015-May-27 05:27N 29°57' W 090°02'5 5.0
2015-May-27 04:31N 29°55' W 090°06'  
2015-May-24 12:28N 29°57' W 090°09'2 2.4
2015-May-24 11:28N 29°55' W 090°08'3 2.8
2015-May-24 10:33N 29°55' W 090°05'3 2.8
2015-May-24 09:27N 29°57' W 090°03'3 3.2
2015-May-24 08:22N 29°56' W 089°60'2 2.4
2015-May-24 07:28N 29°55' W 089°57'0 0.0
2015-May-23 09:08N 29°55' W 089°57'9 5.3
2015-May-23 07:24N 29°55' W 090°08'3 0.2
2015-May-22 14:08N 29°57' W 090°10'2 2.5
2015-May-22 13:23N 29°56' W 090°08'3 3.1
2015-May-22 12:33N 29°55' W 090°06'4 3.5
2015-May-22 11:20N 29°57' W 090°01'4 3.6
2015-May-22 10:18N 29°55' W 089°58'  
2015-May-20 00:26N 29°56' W 090°03'  
Track history (hours):
 
Tides and Currents Weather Stations Pressure Air Temp Water Temp Dewpoint Dewpoint Depression Visibility Wind Speed Wind Dir Waves Ship Positions

MiSS Sylvia

Owner: DOUBLE J MARINE, LLC, LAPLACE, LA. More information available from US FCC via Universal Licensing System and Coast Guard Vessel Documentation Center.

Last reported at 2015-May-29 18:21 UTC. Time now 2015-May-30 10:36 UTC.
Position N 30°20' W 091°14'.

Length 20 m; draft 2.7 m.

Type: Towing. MMSI: 367366340.

Date/timePositionNaut miles runAvg speedWind from/ knotsBaromVisibWave heightAir tempDewpointWater temp
2015-May-29 18:21N 30°20' W 091°14'4 4.9
2015-May-29 17:33N 30°24' W 091°13'2 1.6
2015-May-29 16:33N 30°26' W 091°12'3 2.7
2015-May-29 15:33N 30°23' W 091°13'3 1.5
2015-May-29 13:25N 30°21' W 091°11'3 1.7
2015-May-29 11:33N 30°18' W 091°13'7 3.3
2015-May-29 09:33N 30°15' W 091°07'54 1.8
2015-May-28 04:20N 29°57' W 090°08'14 3.0
2015-May-27 23:32N 29°44' W 089°60'8 4.0
2015-May-27 21:30N 29°38' W 089°55'17 1.1
2015-May-27 06:26N 29°55' W 089°55'6 6.5
2015-May-27 05:27N 29°57' W 090°02'5 5.0
2015-May-27 04:31N 29°55' W 090°06'  
2015-May-24 12:28N 29°57' W 090°09'2 2.4
2015-May-24 11:28N 29°55' W 090°08'3 2.8
2015-May-24 10:33N 29°55' W 090°05'3 2.8
2015-May-24 09:27N 29°57' W 090°03'3 3.2
2015-May-24 08:22N 29°56' W 089°60'2 2.4
2015-May-24 07:28N 29°55' W 089°57'0 0.0
2015-May-23 09:08N 29°55' W 089°57'9 5.3
2015-May-23 07:24N 29°55' W 090°08'3 0.2
2015-May-22 14:08N 29°57' W 090°10'2 2.5
2015-May-22 13:23N 29°56' W 090°08'3 3.1
2015-May-22 12:33N 29°55' W 090°06'4 3.5
2015-May-22 11:20N 29°57' W 090°01'4 3.6
2015-May-22 10:18N 29°55' W 089°58'  
2015-May-20 00:26N 29°56' W 090°03'  

Dump ship's entire track history